sensor_id;sensor_type;location;lat;lon;timestamp;temperature;humidity
53954;HTU21D;39862;54.856;26.318;2022-10-04T02:13:42;8.1;77.1
53954;HTU21D;39862;54.856;26.318;2022-10-04T02:18:49;8.1;77
53954;HTU21D;39862;54.856;26.318;2022-10-04T02:23:30;8.1;77
53954;HTU21D;39862;54.856;26.318;2022-10-04T02:28:40;8.1;77
53954;HTU21D;39862;54.856;26.318;2022-10-04T02:33:43;8.2;76.9
53954;HTU21D;39862;54.856;26.318;2022-10-04T02:39:02;8.2;76.9
53954;HTU21D;39862;54.856;26.318;2022-10-04T02:44:18;8.2;76.9
53954;HTU21D;39862;54.856;26.318;2022-10-04T02:48:54;8.2;76.9
53954;HTU21D;39862;54.856;26.318;2022-10-04T02:55:21;8.2;76.9
53954;HTU21D;39862;54.856;26.318;2022-10-04T02:59:16;8.2;76.9
53954;HTU21D;39862;54.856;26.318;2022-10-04T03:03:32;8.2;76.9
53954;HTU21D;39862;54.856;26.318;2022-10-04T03:08:46;8.2;76.8
53954;HTU21D;39862;54.856;26.318;2022-10-04T03:13:30;8.3;76.7
53954;HTU21D;39862;54.856;26.318;2022-10-04T03:19:17;8.3;76.6
53954;HTU21D;39862;54.856;26.318;2022-10-04T03:23:31;8.3;76.6
53954;HTU21D;39862;54.856;26.318;2022-10-04T03:29:07;8.3;76.6
53954;HTU21D;39862;54.856;26.318;2022-10-04T03:33:53;8.3;76.5
53954;HTU21D;39862;54.856;26.318;2022-10-04T03:39:03;8.3;76.5
53954;HTU21D;39862;54.856;26.318;2022-10-04T03:43:53;8.3;76.5
53954;HTU21D;39862;54.856;26.318;2022-10-04T03:48:55;8.3;76.5
53954;HTU21D;39862;54.856;26.318;2022-10-04T03:53:56;8.3;76.5
53954;HTU21D;39862;54.856;26.318;2022-10-04T03:58:31;8.3;76.4
53954;HTU21D;39862;54.856;26.318;2022-10-04T04:03:42;8.3;76.4
53954;HTU21D;39862;54.856;26.318;2022-10-04T04:09:19;8.3;76.4
53954;HTU21D;39862;54.856;26.318;2022-10-04T04:13:43;8.3;76.4
53954;HTU21D;39862;54.856;26.318;2022-10-04T04:18:42;8.3;76.4
53954;HTU21D;39862;54.856;26.318;2022-10-04T04:23:54;8.3;76.4
53954;HTU21D;39862;54.856;26.318;2022-10-04T04:34:19;8.3;76.5
53954;HTU21D;39862;54.856;26.318;2022-10-04T04:38:31;8.4;76.5
53954;HTU21D;39862;54.856;26.318;2022-10-04T04:43:55;8.4;76.5
53954;HTU21D;39862;54.856;26.318;2022-10-04T04:48:31;8.4;76.4
53954;HTU21D;39862;54.856;26.318;2022-10-04T04:53:31;8.4;76.4
53954;HTU21D;39862;54.856;26.318;2022-10-04T04:58:53;8.4;76.4
53954;HTU21D;39862;54.856;26.318;2022-10-04T05:03:41;8.5;76.4
53954;HTU21D;39862;54.856;26.318;2022-10-04T05:09:01;8.5;76.5
53954;HTU21D;39862;54.856;26.318;2022-10-04T05:14:15;8.5;76.7
53954;HTU21D;39862;54.856;26.318;2022-10-04T05:18:59;8.5;76.8
53954;HTU21D;39862;54.856;26.318;2022-10-04T05:24:23;8.6;77
53954;HTU21D;39862;54.856;26.318;2022-10-04T05:29:16;8.6;77
53954;HTU21D;39862;54.856;26.318;2022-10-04T05:33:50;8.7;77
53954;HTU21D;39862;54.856;26.318;2022-10-04T05:38:39;8.7;76.9
53954;HTU21D;39862;54.856;26.318;2022-10-04T05:43:35;8.8;76.9
53954;HTU21D;39862;54.856;26.318;2022-10-04T05:49:15;8.8;76.9
53954;HTU21D;39862;54.856;26.318;2022-10-04T05:54:03;8.8;76.8
53954;HTU21D;39862;54.856;26.318;2022-10-04T06:04:15;8.9;76.8
53954;HTU21D;39862;54.856;26.318;2022-10-04T06:10:10;8.9;76.7
53954;HTU21D;39862;54.856;26.318;2022-10-04T06:14:44;8.9;76.7
53954;HTU21D;39862;54.856;26.318;2022-10-04T06:19:07;8.9;76.7
53954;HTU21D;39862;54.856;26.318;2022-10-04T06:24:16;9;76.8
53954;HTU21D;39862;54.856;26.318;2022-10-04T06:28:41;9;76.8
53954;HTU21D;39862;54.856;26.318;2022-10-04T06:33:35;9;76.9
53954;HTU21D;39862;54.856;26.318;2022-10-04T06:39:44;9;77
53954;HTU21D;39862;54.856;26.318;2022-10-04T06:44:15;9;77.1
53954;HTU21D;39862;54.856;26.318;2022-10-04T06:49:21;9.1;77.1
53954;HTU21D;39862;54.856;26.318;2022-10-04T06:53:46;9.1;77.1
53954;HTU21D;39862;54.856;26.318;2022-10-04T06:59:28;9.1;77.2
53954;HTU21D;39862;54.856;26.318;2022-10-04T07:04:19;9.2;77.6
53954;HTU21D;39862;54.856;26.318;2022-10-04T07:08:45;9.3;78
53954;HTU21D;39862;54.856;26.318;2022-10-04T07:13:52;9.4;78.2
53954;HTU21D;39862;54.856;26.318;2022-10-04T07:18:43;9.5;78.2
53954;HTU21D;39862;54.856;26.318;2022-10-04T07:23:50;9.6;78
53954;HTU21D;39862;54.856;26.318;2022-10-04T07:28:41;9.7;77.9
53954;HTU21D;39862;54.856;26.318;2022-10-04T07:33:53;9.7;77.6
53954;HTU21D;39862;54.856;26.318;2022-10-04T07:39:15;9.8;77.3
53954;HTU21D;39862;54.856;26.318;2022-10-04T07:44:13;9.8;77
53954;HTU21D;39862;54.856;26.318;2022-10-04T07:48:39;9.8;76.8
53954;HTU21D;39862;54.856;26.318;2022-10-04T07:54:26;9.8;76.7
53954;HTU21D;39862;54.856;26.318;2022-10-04T07:59:18;9.9;76.6
53954;HTU21D;39862;54.856;26.318;2022-10-04T08:04:18;9.9;76.5
53954;HTU21D;39862;54.856;26.318;2022-10-04T08:10:19;9.9;76.5
53954;HTU21D;39862;54.856;26.318;2022-10-04T08:13:50;9.9;76.5
53954;HTU21D;39862;54.856;26.318;2022-10-04T08:19:42;10;76.8
53954;HTU21D;39862;54.856;26.318;2022-10-04T08:23:54;10;77.2
53954;HTU21D;39862;54.856;26.318;2022-10-04T08:28:36;10.1;77.3
53954;HTU21D;39862;54.856;26.318;2022-10-04T08:38:56;10.3;77.5
53954;HTU21D;39862;54.856;26.318;2022-10-04T08:43:34;10.3;77.6
53954;HTU21D;39862;54.856;26.318;2022-10-04T08:49:22;10.5;77.8
53954;HTU21D;39862;54.856;26.318;2022-10-04T08:54:19;10.6;77.6
53954;HTU21D;39862;54.856;26.318;2022-10-04T08:58:36;10.7;77.3
53954;HTU21D;39862;54.856;26.318;2022-10-04T09:03:49;10.7;76.9
53954;HTU21D;39862;54.856;26.318;2022-10-04T09:14:19;10.8;76.5
53954;HTU21D;39862;54.856;26.318;2022-10-04T09:19:19;10.8;76.3
53954;HTU21D;39862;54.856;26.318;2022-10-04T09:23:56;10.8;76.4
53954;HTU21D;39862;54.856;26.318;2022-10-04T09:29:15;10.9;76.3
53954;HTU21D;39862;54.856;26.318;2022-10-04T09:38:43;10.9;75.9
53954;HTU21D;39862;54.856;26.318;2022-10-04T09:43:47;10.9;75.8
53954;HTU21D;39862;54.856;26.318;2022-10-04T09:48:35;11;75.9
53954;HTU21D;39862;54.856;26.318;2022-10-04T09:53:40;11;75.9
53954;HTU21D;39862;54.856;26.318;2022-10-04T09:58:56;11;75.6
53954;HTU21D;39862;54.856;26.318;2022-10-04T10:14:18;11.1;75
53954;HTU21D;39862;54.856;26.318;2022-10-04T10:19:26;11.1;75.2
53954;HTU21D;39862;54.856;26.318;2022-10-04T10:24:01;11.2;75.3
53954;HTU21D;39862;54.856;26.318;2022-10-04T10:29:36;11.2;75.2
53954;HTU21D;39862;54.856;26.318;2022-10-04T10:34:23;11.3;75.2
53954;HTU21D;39862;54.856;26.318;2022-10-04T10:49:46;11.4;75.3
53954;HTU21D;39862;54.856;26.318;2022-10-04T10:58:38;11.5;74.9
53954;HTU21D;39862;54.856;26.318;2022-10-04T11:09:30;11.5;75
53954;HTU21D;39862;54.856;26.318;2022-10-04T11:13:56;11.5;75
53954;HTU21D;39862;54.856;26.318;2022-10-04T11:19:38;11.6;75
53954;HTU21D;39862;54.856;26.318;2022-10-04T11:24:19;11.6;74.9
53954;HTU21D;39862;54.856;26.318;2022-10-04T11:28:36;11.6;74.7
53954;HTU21D;39862;54.856;26.318;2022-10-04T11:34:10;11.6;74.6
53954;HTU21D;39862;54.856;26.318;2022-10-04T11:39:05;11.6;74.4
53954;HTU21D;39862;54.856;26.318;2022-10-04T11:44:37;11.7;74.2
53954;HTU21D;39862;54.856;26.318;2022-10-04T11:49:28;11.7;74
53954;HTU21D;39862;54.856;26.318;2022-10-04T11:54:47;11.7;73.9
53954;HTU21D;39862;54.856;26.318;2022-10-04T11:59:15;11.7;73.8
53954;HTU21D;39862;54.856;26.318;2022-10-04T12:13:45;11.6;73.5
53954;HTU21D;39862;54.856;26.318;2022-10-04T12:19:02;11.6;73.6
53954;HTU21D;39862;54.856;26.318;2022-10-04T12:28:43;11.5;73.8
53954;HTU21D;39862;54.856;26.318;2022-10-04T12:39:14;11.5;73.8
53954;HTU21D;39862;54.856;26.318;2022-10-04T13:04:30;11.4;73.7
53954;HTU21D;39862;54.856;26.318;2022-10-04T13:08:37;11.4;73.8
53954;HTU21D;39862;54.856;26.318;2022-10-04T13:19:28;11.4;74
53954;HTU21D;39862;54.856;26.318;2022-10-04T13:24:09;11.4;74
53954;HTU21D;39862;54.856;26.318;2022-10-04T13:29:01;11.4;74
53954;HTU21D;39862;54.856;26.318;2022-10-04T13:34:19;11.4;74
53954;HTU21D;39862;54.856;26.318;2022-10-04T13:49:05;11.3;73.8
53954;HTU21D;39862;54.856;26.318;2022-10-04T13:54:16;11.3;73.8
53954;HTU21D;39862;54.856;26.318;2022-10-04T13:58:33;11.3;73.8
53954;HTU21D;39862;54.856;26.318;2022-10-04T14:03:44;11.3;73.8
53954;HTU21D;39862;54.856;26.318;2022-10-04T14:09:17;11.3;73.8
53954;HTU21D;39862;54.856;26.318;2022-10-04T14:24:16;11.3;73.7
53954;HTU21D;39862;54.856;26.318;2022-10-04T14:29:18;11.3;73.7
53954;HTU21D;39862;54.856;26.318;2022-10-04T14:35:15;11.3;73.6
53954;HTU21D;39862;54.856;26.318;2022-10-04T14:38:54;11.3;73.6
53954;HTU21D;39862;54.856;26.318;2022-10-04T14:43:57;11.3;73.6
53954;HTU21D;39862;54.856;26.318;2022-10-04T14:48:37;11.2;73.7
53954;HTU21D;39862;54.856;26.318;2022-10-04T14:53:45;11.2;73.8
53954;HTU21D;39862;54.856;26.318;2022-10-04T14:58:38;11.2;74
53954;HTU21D;39862;54.856;26.318;2022-10-04T15:03:34;11.2;74.1
53954;HTU21D;39862;54.856;26.318;2022-10-04T15:08:55;11.2;74.3
53954;HTU21D;39862;54.856;26.318;2022-10-04T15:14:03;11.2;74.5
53954;HTU21D;39862;54.856;26.318;2022-10-04T15:19:27;11.2;74.6
53954;HTU21D;39862;54.856;26.318;2022-10-04T15:23:50;11.2;74.6
53954;HTU21D;39862;54.856;26.318;2022-10-04T15:29:23;11.3;74.6
53954;HTU21D;39862;54.856;26.318;2022-10-04T15:35:23;11.3;74.5
53954;HTU21D;39862;54.856;26.318;2022-10-04T15:38:48;11.3;74.2
53954;HTU21D;39862;54.856;26.318;2022-10-04T15:44:03;11.3;73.8
53954;HTU21D;39862;54.856;26.318;2022-10-04T15:48:53;11.2;73.3
53954;HTU21D;39862;54.856;26.318;2022-10-04T15:54:12;11.1;73
53954;HTU21D;39862;54.856;26.318;2022-10-04T15:59:10;11.1;72.6
53954;HTU21D;39862;54.856;26.318;2022-10-04T16:04:17;11;72.3
53954;HTU21D;39862;54.856;26.318;2022-10-04T16:10:16;10.8;72.1
53954;HTU21D;39862;54.856;26.318;2022-10-04T16:14:12;10.7;71.9
53954;HTU21D;39862;54.856;26.318;2022-10-04T16:18:53;10.6;71.6
53954;HTU21D;39862;54.856;26.318;2022-10-04T16:29:15;10.4;71.4
53954;HTU21D;39862;54.856;26.318;2022-10-04T16:33:33;10.3;71.3
53954;HTU21D;39862;54.856;26.318;2022-10-04T16:38:45;10.2;71.2
53954;HTU21D;39862;54.856;26.318;2022-10-04T16:48:59;10;71.4
53954;HTU21D;39862;54.856;26.318;2022-10-04T16:58:42;9.8;71.7
53954;HTU21D;39862;54.856;26.318;2022-10-04T17:04:10;9.7;71.8
53954;HTU21D;39862;54.856;26.318;2022-10-04T17:09:47;9.6;71.9
53954;HTU21D;39862;54.856;26.318;2022-10-04T17:13:54;9.5;72
53954;HTU21D;39862;54.856;26.318;2022-10-04T17:19:14;9.4;72.3
53954;HTU21D;39862;54.856;26.318;2022-10-04T17:23:45;9.3;72.6
53954;HTU21D;39862;54.856;26.318;2022-10-04T17:29:42;9.3;72.8
53954;HTU21D;39862;54.856;26.318;2022-10-04T17:33:58;9.3;73.1
53954;HTU21D;39862;54.856;26.318;2022-10-04T17:44:05;9.2;73.4
53954;HTU21D;39862;54.856;26.318;2022-10-04T17:49:19;9.2;73.6
53954;HTU21D;39862;54.856;26.318;2022-10-04T17:53:53;9.1;73.7
53954;HTU21D;39862;54.856;26.318;2022-10-04T17:59:21;9.1;74
53954;HTU21D;39862;54.856;26.318;2022-10-04T18:04:18;9.1;74.1
53954;HTU21D;39862;54.856;26.318;2022-10-04T18:08:53;9.1;74.2
53954;HTU21D;39862;54.856;26.318;2022-10-04T18:13:33;9.1;74.4
53954;HTU21D;39862;54.856;26.318;2022-10-04T18:18:40;9.1;74.5
53954;HTU21D;39862;54.856;26.318;2022-10-04T18:24:17;9.1;74.6
53954;HTU21D;39862;54.856;26.318;2022-10-04T18:29:10;9.1;74.6
53954;HTU21D;39862;54.856;26.318;2022-10-04T18:34:12;9.1;74.5
53954;HTU21D;39862;54.856;26.318;2022-10-04T18:39:22;9.1;74.5
53954;HTU21D;39862;54.856;26.318;2022-10-04T18:44:04;9.1;74.5
53954;HTU21D;39862;54.856;26.318;2022-10-04T18:49:19;9.1;74.5
53954;HTU21D;39862;54.856;26.318;2022-10-04T18:55:00;9;74.5
53954;HTU21D;39862;54.856;26.318;2022-10-04T18:59:52;9;74.4
53954;HTU21D;39862;54.856;26.318;2022-10-04T19:04:02;9;74.4
53954;HTU21D;39862;54.856;26.318;2022-10-04T19:14:24;8.9;74.4
53954;HTU21D;39862;54.856;26.318;2022-10-04T19:19:38;8.9;74.4
53954;HTU21D;39862;54.856;26.318;2022-10-04T19:24:02;8.9;74.4
53954;HTU21D;39862;54.856;26.318;2022-10-04T19:28:39;8.8;74.5
53954;HTU21D;39862;54.856;26.318;2022-10-04T19:34:03;8.8;74.5
53954;HTU21D;39862;54.856;26.318;2022-10-04T19:39:15;8.8;74.3
53954;HTU21D;39862;54.856;26.318;2022-10-04T19:43:56;8.7;74.2
53954;HTU21D;39862;54.856;26.318;2022-10-04T19:48:51;8.7;74.2
53954;HTU21D;39862;54.856;26.318;2022-10-04T19:53:34;8.7;74.2
53954;HTU21D;39862;54.856;26.318;2022-10-04T19:58:46;8.6;74.3
53954;HTU21D;39862;54.856;26.318;2022-10-04T20:03:53;8.6;74.4
53954;HTU21D;39862;54.856;26.318;2022-10-04T20:08:53;8.6;74.3
53954;HTU21D;39862;54.856;26.318;2022-10-04T20:14:41;8.6;74.3
53954;HTU21D;39862;54.856;26.318;2022-10-04T20:18:59;8.6;74.3
53954;HTU21D;39862;54.856;26.318;2022-10-04T20:23:49;8.6;74.2
53954;HTU21D;39862;54.856;26.318;2022-10-04T20:30:21;8.5;74.1
53954;HTU21D;39862;54.856;26.318;2022-10-04T20:33:46;8.5;74.1
53954;HTU21D;39862;54.856;26.318;2022-10-04T20:43:51;8.4;74.3
53954;HTU21D;39862;54.856;26.318;2022-10-04T20:48:31;8.4;74.6
53954;HTU21D;39862;54.856;26.318;2022-10-04T20:54:16;8.4;74.8
53954;HTU21D;39862;54.856;26.318;2022-10-04T20:59:14;8.4;75
53954;HTU21D;39862;54.856;26.318;2022-10-04T21:03:53;8.4;75
53954;HTU21D;39862;54.856;26.318;2022-10-04T21:08:59;8.4;75.2
53954;HTU21D;39862;54.856;26.318;2022-10-04T21:14:01;8.4;75.2
53954;HTU21D;39862;54.856;26.318;2022-10-04T21:18:41;8.4;75.2
53954;HTU21D;39862;54.856;26.318;2022-10-04T21:24:38;8.4;75.3
53954;HTU21D;39862;54.856;26.318;2022-10-04T21:29:15;8.4;75.3
53954;HTU21D;39862;54.856;26.318;2022-10-04T21:33:31;8.4;75.4
53954;HTU21D;39862;54.856;26.318;2022-10-04T21:38:41;8.4;75.4
53954;HTU21D;39862;54.856;26.318;2022-10-04T21:44:13;8.4;75.4
53954;HTU21D;39862;54.856;26.318;2022-10-04T21:49:15;8.4;75.6
53954;HTU21D;39862;54.856;26.318;2022-10-04T21:54:06;8.4;75.8
53954;HTU21D;39862;54.856;26.318;2022-10-04T21:58:49;8.4;76
53954;HTU21D;39862;54.856;26.318;2022-10-04T22:04:13;8.4;76.1
53954;HTU21D;39862;54.856;26.318;2022-10-04T22:09:13;8.4;76.2
53954;HTU21D;39862;54.856;26.318;2022-10-04T22:13:51;8.5;76.3
53954;HTU21D;39862;54.856;26.318;2022-10-04T22:18:51;8.5;76.4
53954;HTU21D;39862;54.856;26.318;2022-10-04T22:23:35;8.6;76.6
53954;HTU21D;39862;54.856;26.318;2022-10-04T22:28:31;8.6;76.6
53954;HTU21D;39862;54.856;26.318;2022-10-04T22:33:51;8.6;76.6
53954;HTU21D;39862;54.856;26.318;2022-10-04T22:38:42;8.6;76.7
53954;HTU21D;39862;54.856;26.318;2022-10-04T22:44:44;8.6;76.7
